createdAt,value
2023-01-13T00:00:25.352Z,99.99
2023-01-13T00:01:25.259Z,99.99
2023-01-13T00:02:25.320Z,99.99
2023-01-13T00:03:25.251Z,99.99
2023-01-13T00:04:25.614Z,99.99
2023-01-13T00:05:25.315Z,99.99
2023-01-13T00:06:25.254Z,99.99
2023-01-13T00:07:25.224Z,99.99
2023-01-13T00:08:25.300Z,99.99
2023-01-13T00:09:25.194Z,99.99
2023-01-13T00:10:25.199Z,99.99
2023-01-13T00:11:25.520Z,99.99
2023-01-13T00:12:25.216Z,99.99
2023-01-13T00:13:25.145Z,99.99
2023-01-13T00:14:25.122Z,99.99
2023-01-13T00:15:25.121Z,99.99
2023-01-13T00:16:25.169Z,99.99
2023-01-13T00:17:25.189Z,99.99
2023-01-13T00:18:25.468Z,99.99
2023-01-13T00:19:25.072Z,99.99
2023-01-13T00:20:25.070Z,99.99
2023-01-13T00:21:25.073Z,99.99
2023-01-13T00:22:25.059Z,99.99
2023-01-13T00:23:25.026Z,99.99
2023-01-13T00:24:25.067Z,99.99
2023-01-13T00:25:25.285Z,99.99
2023-01-13T00:26:25.030Z,99.99
2023-01-13T00:27:25.020Z,99.71
2023-01-13T00:28:24.977Z,98.79
2023-01-13T00:29:25.023Z,98.49
2023-01-13T00:30:25.013Z,98.69
2023-01-13T00:31:25.067Z,98.79
2023-01-13T00:32:25.227Z,98.69
2023-01-13T00:33:24.922Z,98.07
2023-01-13T00:34:24.914Z,98.07
2023-01-13T00:35:24.931Z,98.07
2023-01-13T00:36:24.936Z,98.18
2023-01-13T00:37:24.880Z,98.18
2023-01-13T00:38:24.928Z,98.63
2023-01-13T00:39:24.895Z,98.43
2023-01-13T00:40:24.830Z,98.43
2023-01-13T00:41:24.841Z,98.22
2023-01-13T00:42:24.864Z,98.02
2023-01-13T00:43:24.818Z,97.81
2023-01-13T00:44:25.098Z,97.81
2023-01-13T00:45:24.813Z,97.30
2023-01-13T00:46:24.833Z,97.20
2023-01-13T00:47:24.774Z,97.40
2023-01-13T00:48:24.827Z,97.30
2023-01-13T00:49:24.769Z,97.20
2023-01-13T00:50:24.743Z,97.20
2023-01-13T00:51:24.747Z,96.99
2023-01-13T00:52:24.742Z,97.09
2023-01-13T00:53:24.702Z,96.99
2023-01-13T00:54:24.756Z,97.20
2023-01-13T00:55:24.744Z,96.99
2023-01-13T00:56:39.280Z,96.79
2023-01-13T00:57:24.677Z,96.28
2023-01-13T00:58:24.698Z,96.38
2023-01-13T00:59:24.668Z,96.28
2023-01-13T01:00:24.691Z,95.87
2023-01-13T01:01:24.746Z,95.66
2023-01-13T01:02:24.632Z,96.17
2023-01-13T01:03:24.912Z,96.48
2023-01-13T01:04:24.601Z,95.66
2023-01-13T01:05:24.581Z,94.64
2023-01-13T01:06:24.651Z,93.92
2023-01-13T01:07:24.560Z,94.33
2023-01-13T01:08:24.556Z,94.33
2023-01-13T01:09:24.545Z,94.74
2023-01-13T01:10:24.817Z,94.78
2023-01-13T01:11:24.539Z,94.89
2023-01-13T01:12:24.548Z,94.37
2023-01-13T01:13:24.544Z,94.58
2023-01-13T01:14:24.502Z,94.48
2023-01-13T01:15:24.496Z,94.17
2023-01-13T01:16:24.536Z,93.76
2023-01-13T01:17:24.813Z,93.86
2023-01-13T01:18:24.486Z,93.45
2023-01-13T01:19:24.467Z,93.45
2023-01-13T01:20:24.415Z,93.45
2023-01-13T01:21:24.428Z,93.25
2023-01-13T01:22:24.436Z,93.25
2023-01-13T01:23:24.404Z,93.66
2023-01-13T01:24:24.741Z,93.66
2023-01-13T01:25:24.373Z,93.66
2023-01-13T01:26:24.375Z,93.55
2023-01-13T01:27:24.336Z,93.76
2023-01-13T01:28:24.355Z,93.86
2023-01-13T01:29:24.372Z,92.63
2023-01-13T01:30:24.379Z,92.43
2023-01-13T01:31:24.681Z,92.22
2023-01-13T01:32:24.290Z,92.63
2023-01-13T01:33:24.283Z,93.08
2023-01-13T01:34:24.272Z,92.57
2023-01-13T01:35:24.265Z,92.57
2023-01-13T01:36:24.332Z,92.36
2023-01-13T01:37:24.259Z,92.27
2023-01-13T01:38:24.525Z,91.96
2023-01-13T01:39:24.232Z,91.55
2023-01-13T01:40:24.352Z,91.75
2023-01-13T01:41:24.196Z,91.65
2023-01-13T01:42:24.241Z,92.06
2023-01-13T01:43:24.215Z,91.65
2023-01-13T01:44:24.175Z,91.75
2023-01-13T01:45:24.476Z,91.65
2023-01-13T01:46:24.236Z,91.35
2023-01-13T01:47:24.191Z,91.44
2023-01-13T01:48:24.176Z,91.35
2023-01-13T01:49:24.118Z,91.35
2023-01-13T01:50:24.109Z,91.24
2023-01-13T01:51:24.099Z,91.65
2023-01-13T01:52:24.367Z,91.96
2023-01-13T01:53:24.069Z,91.86
2023-01-13T01:54:24.112Z,91.59
2023-01-13T01:55:24.044Z,91.90
2023-01-13T01:56:24.046Z,92.10
2023-01-13T01:57:24.073Z,92.31
2023-01-13T01:58:24.013Z,92.00
2023-01-13T01:59:24.295Z,92.10
2023-01-13T02:00:24.033Z,91.80
2023-01-13T02:01:24.095Z,91.90
2023-01-13T02:02:24.032Z,91.59
2023-01-13T02:03:23.964Z,91.49
2023-01-13T02:04:23.952Z,91.80
2023-01-13T02:05:23.946Z,91.90
2023-01-13T02:06:24.286Z,92.10
2023-01-13T02:07:23.925Z,92.10
2023-01-13T02:08:23.906Z,91.69
2023-01-13T02:09:23.905Z,92.10
2023-01-13T02:10:23.903Z,92.21
2023-01-13T02:11:23.879Z,92.41
2023-01-13T02:12:23.929Z,92.31
2023-01-13T02:13:24.139Z,92.41
2023-01-13T02:14:23.842Z,91.49
2023-01-13T02:15:23.882Z,91.38
2023-01-13T02:16:23.840Z,91.38
2023-01-13T02:17:23.823Z,91.49
2023-01-13T02:18:23.833Z,90.87
2023-01-13T02:19:23.799Z,90.97
2023-01-13T02:20:25.065Z,91.08
2023-01-13T02:21:23.807Z,91.08
2023-01-13T02:22:23.790Z,91.18
2023-01-13T02:23:23.765Z,91.18
2023-01-13T02:24:23.908Z,91.28
2023-01-13T02:25:23.728Z,91.53
2023-01-13T02:26:23.734Z,90.71
2023-01-13T02:27:24.013Z,90.36
2023-01-13T02:28:23.719Z,90.16
2023-01-13T02:29:23.715Z,90.16
2023-01-13T02:30:23.752Z,90.46
2023-01-13T02:31:23.779Z,90.81
2023-01-13T02:32:23.673Z,90.81
2023-01-13T02:33:23.680Z,91.02
2023-01-13T02:34:23.948Z,91.12
2023-01-13T02:35:23.634Z,91.02
2023-01-13T02:36:23.671Z,91.22
2023-01-13T02:37:23.619Z,91.22
2023-01-13T02:38:23.603Z,90.75
2023-01-13T02:39:23.644Z,91.06
2023-01-13T02:40:23.570Z,90.65
2023-01-13T02:41:23.899Z,90.65
2023-01-13T02:42:23.583Z,90.75
2023-01-13T02:43:23.589Z,90.44
2023-01-13T02:44:23.534Z,90.55
2023-01-13T02:45:23.697Z,90.34
2023-01-13T02:46:23.519Z,90.03
2023-01-13T02:47:23.502Z,89.93
2023-01-13T02:48:23.805Z,90.14
2023-01-13T02:49:23.479Z,89.93
2023-01-13T02:50:23.490Z,89.52
2023-01-13T02:51:23.453Z,89.72
2023-01-13T02:52:23.451Z,89.93
2023-01-13T02:53:23.434Z,90.14
2023-01-13T02:54:23.464Z,89.93
2023-01-13T02:55:23.699Z,89.93
2023-01-13T02:56:23.417Z,90.14
2023-01-13T02:57:23.415Z,90.34
2023-01-13T02:58:23.375Z,89.72
2023-01-13T02:59:23.358Z,89.83
2023-01-13T03:00:23.399Z,89.93
2023-01-13T03:01:23.589Z,89.83
2023-01-13T03:02:23.763Z,90.14
2023-01-13T03:03:23.344Z,90.14
2023-01-13T03:04:23.311Z,90.14
2023-01-13T03:05:23.312Z,89.83
2023-01-13T03:06:23.329Z,89.62
2023-01-13T03:07:23.312Z,89.62
2023-01-13T03:08:23.334Z,89.72
2023-01-13T03:09:23.571Z,89.72
2023-01-13T03:10:23.253Z,89.93
2023-01-13T03:11:23.266Z,89.72
2023-01-13T03:12:23.304Z,89.83
2023-01-13T03:13:23.249Z,89.83
2023-01-13T03:14:23.221Z,89.52
2023-01-13T03:15:23.202Z,89.62
2023-01-13T03:16:23.564Z,89.52
2023-01-13T03:17:23.174Z,89.52
2023-01-13T03:18:23.221Z,89.21
2023-01-13T03:19:23.183Z,89.01
2023-01-13T03:20:23.194Z,89.11
2023-01-13T03:21:23.172Z,88.90
2023-01-13T03:22:23.216Z,88.90
2023-01-13T03:23:23.405Z,89.01
2023-01-13T03:24:23.154Z,89.21
2023-01-13T03:25:23.136Z,89.31
2023-01-13T03:26:23.095Z,89.31
2023-01-13T03:27:23.076Z,88.70
2023-01-13T03:28:23.067Z,88.90
2023-01-13T03:29:23.050Z,88.90
2023-01-13T03:30:23.467Z,89.01
2023-01-13T03:31:23.063Z,88.90
2023-01-13T03:32:23.050Z,89.11
2023-01-13T03:33:23.041Z,88.90
2023-01-13T03:34:22.995Z,89.01
2023-01-13T03:35:23.009Z,89.21
2023-01-13T03:36:23.022Z,89.31
2023-01-13T03:37:23.279Z,89.42
2023-01-13T03:38:22.960Z,89.31
2023-01-13T03:39:22.950Z,89.21
2023-01-13T03:40:22.976Z,89.11
2023-01-13T03:41:22.926Z,89.21
2023-01-13T03:42:22.964Z,88.80
2023-01-13T03:43:22.923Z,88.70
2023-01-13T03:44:23.223Z,88.39
2023-01-13T03:45:22.888Z,88.39
2023-01-13T03:46:23.081Z,88.18
2023-01-13T03:47:22.859Z,88.08
2023-01-13T03:48:22.888Z,88.29
2023-01-13T03:49:22.859Z,88.39
2023-01-13T03:50:22.836Z,88.39
2023-01-13T03:51:23.118Z,88.29
2023-01-13T03:52:22.813Z,87.98
2023-01-13T03:53:22.804Z,87.16
2023-01-13T03:54:22.824Z,87.16
2023-01-13T03:55:22.798Z,87.46
2023-01-13T03:56:22.770Z,87.16
2023-01-13T03:57:22.752Z,87.57
2023-01-13T03:58:23.023Z,87.82
2023-01-13T03:59:22.753Z,87.92
2023-01-13T04:00:22.745Z,87.61
2023-01-13T04:01:22.962Z,87.82
2023-01-13T04:02:22.768Z,87.20
2023-01-13T04:03:22.720Z,86.99
2023-01-13T04:04:22.679Z,86.79
2023-01-13T04:05:22.946Z,86.68
2023-01-13T04:06:22.685Z,86.48
2023-01-13T04:07:22.658Z,86.68
2023-01-13T04:08:22.660Z,86.58
2023-01-13T04:09:22.628Z,86.38
2023-01-13T04:10:22.623Z,86.48
2023-01-13T04:11:22.622Z,86.58
2023-01-13T04:12:22.906Z,86.48
2023-01-13T04:13:22.591Z,85.97
2023-01-13T04:14:22.578Z,86.17
2023-01-13T04:15:22.567Z,85.97
2023-01-13T04:16:22.555Z,85.97
2023-01-13T04:17:22.549Z,85.76
2023-01-13T04:18:23.049Z,85.66
2023-01-13T04:19:22.811Z,85.76
2023-01-13T04:20:22.522Z,85.97
2023-01-13T04:21:22.539Z,85.86
2023-01-13T04:22:22.501Z,86.17
2023-01-13T04:23:22.490Z,85.86
2023-01-13T04:24:22.518Z,85.97
2023-01-13T04:25:22.468Z,85.86
2023-01-13T04:26:22.753Z,85.86
2023-01-13T04:27:22.449Z,85.97
2023-01-13T04:28:22.451Z,86.27
2023-01-13T04:29:22.429Z,86.38
2023-01-13T04:30:22.488Z,86.32
2023-01-13T04:31:22.475Z,86.52
2023-01-13T04:32:22.393Z,86.52
2023-01-13T04:33:22.666Z,86.52
2023-01-13T04:34:22.402Z,86.42
2023-01-13T04:35:22.369Z,86.17
2023-01-13T04:36:22.384Z,86.27
2023-01-13T04:37:22.335Z,86.17
2023-01-13T04:38:22.325Z,86.07
2023-01-13T04:39:22.315Z,86.17
2023-01-13T04:40:22.637Z,86.27
2023-01-13T04:41:22.295Z,86.17
2023-01-13T04:42:22.314Z,86.27
2023-01-13T04:43:22.280Z,86.07
2023-01-13T04:44:22.276Z,86.38
2023-01-13T04:45:22.264Z,86.58
2023-01-13T04:46:22.303Z,86.58
2023-01-13T04:47:22.536Z,86.68
2023-01-13T04:48:22.521Z,86.79
2023-01-13T04:49:22.219Z,86.62
2023-01-13T04:50:22.232Z,86.58
2023-01-13T04:51:22.184Z,86.48
2023-01-13T04:52:22.187Z,86.58
2023-01-13T04:53:22.170Z,86.58
2023-01-13T04:54:22.500Z,86.48
2023-01-13T04:55:22.163Z,86.17
2023-01-13T04:56:22.135Z,85.86
2023-01-13T04:57:22.126Z,86.17
2023-01-13T04:58:22.127Z,86.07
2023-01-13T04:59:22.122Z,86.17
2023-01-13T05:00:22.155Z,86.48
2023-01-13T05:01:22.573Z,86.48
2023-01-13T05:02:22.197Z,86.17
2023-01-13T05:03:22.071Z,86.07
2023-01-13T05:04:22.057Z,85.66
2023-01-13T05:05:22.051Z,85.76
2023-01-13T05:06:22.064Z,85.97
2023-01-13T05:07:22.036Z,85.55
2023-01-13T05:08:22.291Z,85.66
2023-01-13T05:09:21.997Z,85.35
2023-01-13T05:10:23.969Z,85.66
2023-01-13T05:11:21.983Z,85.04
2023-01-13T05:12:21.998Z,85.04
2023-01-13T05:13:21.952Z,84.90
2023-01-13T05:14:21.954Z,85.11
2023-01-13T05:15:22.224Z,84.80
2023-01-13T05:16:22.083Z,84.59
2023-01-13T05:17:21.922Z,84.59
2023-01-13T05:18:21.975Z,84.69
2023-01-13T05:19:21.909Z,84.69
2023-01-13T05:20:21.912Z,84.49
2023-01-13T05:21:21.893Z,84.69
2023-01-13T05:22:22.150Z,84.59
2023-01-13T05:23:21.862Z,84.49
2023-01-13T05:24:21.883Z,84.94
2023-01-13T05:25:21.828Z,84.53
2023-01-13T05:26:21.851Z,84.32
2023-01-13T05:27:21.842Z,83.98
2023-01-13T05:28:21.809Z,83.56
2023-01-13T05:29:22.069Z,83.56
2023-01-13T05:30:21.827Z,83.67
2023-01-13T05:31:21.863Z,83.46
2023-01-13T05:32:21.785Z,83.05
2023-01-13T05:33:21.742Z,83.15
2023-01-13T05:34:21.765Z,82.84
2023-01-13T05:35:21.732Z,82.95
2023-01-13T05:36:22.071Z,82.75
2023-01-13T05:37:21.714Z,82.64
2023-01-13T05:38:21.716Z,82.95
2023-01-13T05:39:21.710Z,82.54
2023-01-13T05:40:21.705Z,82.54
2023-01-13T05:41:21.684Z,82.33
2023-01-13T05:42:21.694Z,82.43
2023-01-13T05:43:22.083Z,82.23
2023-01-13T05:44:21.643Z,82.43
2023-01-13T05:45:21.662Z,82.43
2023-01-13T05:46:21.673Z,82.54
2023-01-13T05:47:21.599Z,82.43
2023-01-13T05:48:21.637Z,82.43
2023-01-13T05:49:21.611Z,82.23
2023-01-13T05:50:21.868Z,82.33
2023-01-13T05:51:21.569Z,82.23
2023-01-13T05:52:21.569Z,82.13
2023-01-13T05:53:21.598Z,82.13
2023-01-13T05:54:21.581Z,81.92
2023-01-13T05:55:21.524Z,82.13
2023-01-13T05:56:21.538Z,81.82
2023-01-13T05:57:21.516Z,81.62
2023-01-13T05:58:21.508Z,81.71
2023-01-13T05:59:21.483Z,81.71
2023-01-13T06:00:21.505Z,81.82
2023-01-13T06:01:21.813Z,82.03
2023-01-13T06:02:21.484Z,82.03
2023-01-13T06:03:21.484Z,82.06
2023-01-13T06:04:21.524Z,82.06
2023-01-13T06:05:21.419Z,82.06
2023-01-13T06:06:21.484Z,82.27
2023-01-13T06:07:21.411Z,82.37
2023-01-13T06:08:21.420Z,82.57
2023-01-13T06:09:21.393Z,82.68
2023-01-13T06:10:21.455Z,82.89
2023-01-13T06:11:21.390Z,82.68
2023-01-13T06:12:21.375Z,82.68
2023-01-13T06:13:21.377Z,82.89
2023-01-13T06:14:21.355Z,83.09
2023-01-13T06:15:21.330Z,83.40
2023-01-13T06:16:21.468Z,83.19
2023-01-13T06:17:21.304Z,83.29
2023-01-13T06:18:21.342Z,83.19
2023-01-13T06:19:21.566Z,83.61
2023-01-13T06:20:21.320Z,83.61
2023-01-13T06:21:21.289Z,84.05
2023-01-13T06:22:21.312Z,84.16
2023-01-13T06:23:21.259Z,84.26
2023-01-13T06:24:21.280Z,84.16
2023-01-13T06:25:21.246Z,84.47
2023-01-13T06:26:21.511Z,84.36
2023-01-13T06:27:21.236Z,84.47
2023-01-13T06:28:21.227Z,84.47
2023-01-13T06:29:21.186Z,84.67
2023-01-13T06:30:21.188Z,84.88
2023-01-13T06:31:21.321Z,84.98
2023-01-13T06:32:21.157Z,85.08
2023-01-13T06:33:21.453Z,85.18
2023-01-13T06:34:21.170Z,85.08
2023-01-13T06:35:21.119Z,84.94
2023-01-13T06:36:21.136Z,84.94
2023-01-13T06:37:21.111Z,85.04
2023-01-13T06:38:21.113Z,85.14
2023-01-13T06:39:21.067Z,85.35
2023-01-13T06:40:21.360Z,85.35
2023-01-13T06:41:21.057Z,85.55
2023-01-13T06:42:21.089Z,85.35
2023-01-13T06:43:21.062Z,85.46
2023-01-13T06:44:21.047Z,85.66
2023-01-13T06:45:21.029Z,85.76
2023-01-13T06:46:21.072Z,86.00
2023-01-13T06:47:21.256Z,85.86
2023-01-13T06:48:21.009Z,85.90
2023-01-13T06:49:21.777Z,85.76
2023-01-13T06:50:20.965Z,86.07
2023-01-13T06:51:20.972Z,86.07
2023-01-13T06:52:20.959Z,86.32
2023-01-13T06:53:20.952Z,86.21
2023-01-13T06:54:21.296Z,86.32
2023-01-13T06:55:20.965Z,86.00
2023-01-13T06:56:20.908Z,86.32
2023-01-13T06:57:20.956Z,85.90
2023-01-13T06:58:20.889Z,85.80
2023-01-13T06:59:20.872Z,85.66
2023-01-13T07:00:20.972Z,85.46
2023-01-13T07:01:21.381Z,85.35
2023-01-13T07:02:21.088Z,85.35
2023-01-13T07:03:20.868Z,85.46
2023-01-13T07:04:20.817Z,85.39
2023-01-13T07:05:20.854Z,85.60
2023-01-13T07:06:20.861Z,85.39
2023-01-13T07:07:20.802Z,85.70
2023-01-13T07:08:21.256Z,85.49
2023-01-13T07:09:20.765Z,85.49
2023-01-13T07:10:20.763Z,85.70
2023-01-13T07:11:20.748Z,84.77
2023-01-13T07:12:20.831Z,84.94
2023-01-13T07:13:20.720Z,84.84
2023-01-13T07:14:20.716Z,84.98
2023-01-13T07:15:20.706Z,85.18
2023-01-13T07:16:20.737Z,85.08
2023-01-13T07:17:20.696Z,84.67
2023-01-13T07:18:20.722Z,84.77
2023-01-13T07:19:22.174Z,84.56
2023-01-13T07:20:20.692Z,84.88
2023-01-13T07:21:20.940Z,84.98
2023-01-13T07:22:20.643Z,84.88
2023-01-13T07:23:20.629Z,84.88
2023-01-13T07:24:20.697Z,84.88
2023-01-13T07:25:20.646Z,84.67
2023-01-13T07:26:20.641Z,84.77
2023-01-13T07:27:20.588Z,84.56
2023-01-13T07:28:20.636Z,84.56
2023-01-13T07:29:20.586Z,84.67
2023-01-13T07:30:20.581Z,84.20
2023-01-13T07:31:20.605Z,84.36
2023-01-13T07:32:20.524Z,84.61
2023-01-13T07:33:20.799Z,84.71
2023-01-13T07:34:20.490Z,84.61
2023-01-13T07:35:20.491Z,84.61
2023-01-13T07:36:20.518Z,84.71
2023-01-13T07:37:20.535Z,84.30
2023-01-13T07:38:20.544Z,83.89
2023-01-13T07:39:20.778Z,83.75
2023-01-13T07:40:20.432Z,83.75
2023-01-13T07:41:20.443Z,83.44
2023-01-13T07:42:20.492Z,83.44
2023-01-13T07:43:20.485Z,83.33
2023-01-13T07:44:20.430Z,83.33
2023-01-13T07:45:20.407Z,83.03
2023-01-13T07:46:20.698Z,82.92
2023-01-13T07:47:20.441Z,82.82
2023-01-13T07:48:20.465Z,83.03
2023-01-13T07:49:20.422Z,83.03
2023-01-13T07:50:20.394Z,83.03
2023-01-13T07:51:20.371Z,82.92
2023-01-13T07:52:20.371Z,82.82
2023-01-13T07:53:20.631Z,82.62
2023-01-13T07:54:25.503Z,82.62
2023-01-13T07:55:20.330Z,82.71
2023-01-13T07:56:20.376Z,82.71
2023-01-13T07:57:20.292Z,82.62
2023-01-13T07:58:20.250Z,82.71
2023-01-13T07:59:20.288Z,82.71
2023-01-13T08:00:20.602Z,82.31
2023-01-13T08:01:20.444Z,82.51
2023-01-13T08:02:20.434Z,82.41
2023-01-13T08:03:20.359Z,82.62
2023-01-13T08:04:20.242Z,82.62
2023-01-13T08:05:20.241Z,82.41
2023-01-13T08:06:20.312Z,82.10
2023-01-13T08:07:20.674Z,82.20
2023-01-13T08:08:20.160Z,82.20
2023-01-13T08:09:20.192Z,82.00
2023-01-13T08:10:20.147Z,81.90
2023-01-13T08:11:23.296Z,81.07
2023-01-13T08:12:20.192Z,81.18
2023-01-13T08:13:20.365Z,81.38
2023-01-13T08:14:20.476Z,81.18
2023-01-13T08:15:20.143Z,81.48
2023-01-13T08:16:20.194Z,81.07
2023-01-13T08:17:20.684Z,81.07
2023-01-13T08:18:20.118Z,81.18
2023-01-13T08:19:20.098Z,80.97
2023-01-13T08:20:20.066Z,80.87
2023-01-13T08:21:20.351Z,81.04
2023-01-13T08:22:20.104Z,80.87
2023-01-13T08:23:20.023Z,80.63
2023-01-13T08:24:20.083Z,80.93
2023-01-13T08:25:20.110Z,81.14
2023-01-13T08:26:19.991Z,81.18
2023-01-13T08:27:20.004Z,81.18
2023-01-13T08:28:20.002Z,80.97
2023-01-13T08:29:20.050Z,80.21
2023-01-13T08:30:19.983Z,80.42
2023-01-13T08:31:20.302Z,80.63
2023-01-13T08:32:19.997Z,80.32
2023-01-13T08:33:19.905Z,80.52
2023-01-13T08:34:20.217Z,80.42
2023-01-13T08:35:19.907Z,80.63
2023-01-13T08:36:20.031Z,80.73
2023-01-13T08:37:19.920Z,80.52
2023-01-13T08:38:19.939Z,80.73
2023-01-13T08:39:19.936Z,80.42
2023-01-13T08:40:19.907Z,80.21
2023-01-13T08:41:20.186Z,80.63
2023-01-13T08:42:20.006Z,80.63
2023-01-13T08:43:19.815Z,81.04
2023-01-13T08:44:19.900Z,81.04
2023-01-13T08:45:19.861Z,80.93
2023-01-13T08:46:19.855Z,81.04
2023-01-13T08:47:19.791Z,80.52
2023-01-13T08:48:20.171Z,80.52
2023-01-13T08:49:19.762Z,80.42
2023-01-13T08:50:19.879Z,80.73
2023-01-13T08:51:19.722Z,80.21
2023-01-13T08:52:19.790Z,80.11
2023-01-13T08:53:19.769Z,80.32
2023-01-13T08:54:19.902Z,79.91
2023-01-13T08:55:19.776Z,79.80
2023-01-13T08:56:19.731Z,80.01
2023-01-13T08:57:19.691Z,80.21
2023-01-13T08:58:19.790Z,79.70
2023-01-13T08:59:19.740Z,79.49
2023-01-13T09:00:19.809Z,79.80
2023-01-13T09:01:21.138Z,79.91
2023-01-13T09:02:19.856Z,79.60
2023-01-13T09:03:19.691Z,79.60
2023-01-13T09:04:19.780Z,78.88
2023-01-13T09:05:19.605Z,78.98
2023-01-13T09:06:19.688Z,79.29
2023-01-13T09:07:19.583Z,78.27
2023-01-13T09:08:19.689Z,78.27
2023-01-13T09:09:19.617Z,78.23
2023-01-13T09:10:19.623Z,78.23
2023-01-13T09:11:19.538Z,77.81
2023-01-13T09:12:19.632Z,78.12
2023-01-13T09:13:19.596Z,78.16
2023-01-13T09:14:19.826Z,78.36
2023-01-13T09:15:19.527Z,77.95
2023-01-13T09:16:19.517Z,77.95
2023-01-13T09:17:19.536Z,77.65
2023-01-13T09:18:19.554Z,77.44
2023-01-13T09:19:19.525Z,77.34
2023-01-13T09:20:19.441Z,77.65
2023-01-13T09:21:19.527Z,77.95
2023-01-13T09:22:19.478Z,78.06
2023-01-13T09:23:19.394Z,77.75
2023-01-13T09:24:19.554Z,78.27
2023-01-13T09:25:19.413Z,78.36
2023-01-13T09:26:19.647Z,78.27
2023-01-13T09:27:19.364Z,78.06
2023-01-13T09:28:19.446Z,77.95
2023-01-13T09:29:19.432Z,77.75
2023-01-13T09:30:19.463Z,77.65
2023-01-13T09:31:19.412Z,77.65
2023-01-13T09:32:19.327Z,77.51
2023-01-13T09:33:19.328Z,77.71
2023-01-13T09:34:19.302Z,77.71
2023-01-13T09:35:19.319Z,77.71
2023-01-13T09:36:19.414Z,77.61
2023-01-13T09:37:19.310Z,77.81
2023-01-13T09:38:19.633Z,77.81
2023-01-13T09:39:19.234Z,77.92
2023-01-13T09:40:19.229Z,78.02
2023-01-13T09:41:19.257Z,77.92
2023-01-13T09:42:19.366Z,77.51
2023-01-13T09:43:19.306Z,77.71
2023-01-13T09:44:19.247Z,77.71
2023-01-13T09:45:19.558Z,77.61
2023-01-13T09:46:19.207Z,77.81
2023-01-13T09:47:19.161Z,77.92
2023-01-13T09:48:19.232Z,77.68
2023-01-13T09:49:19.132Z,77.26
2023-01-13T09:50:19.138Z,77.26
2023-01-13T09:51:19.219Z,77.47
2023-01-13T09:52:19.417Z,77.58
2023-01-13T09:53:19.164Z,77.06
2023-01-13T09:54:19.163Z,77.03
2023-01-13T09:55:19.153Z,76.41
2023-01-13T09:56:19.095Z,76.72
2023-01-13T09:57:19.162Z,76.20
2023-01-13T09:58:19.117Z,75.96
2023-01-13T09:59:19.354Z,76.41
2023-01-13T10:00:19.122Z,76.72
2023-01-13T10:01:19.038Z,76.82
2023-01-13T10:02:19.249Z,77.13
2023-01-13T10:03:19.097Z,77.37
2023-01-13T10:04:19.134Z,77.37
2023-01-13T10:05:19.065Z,77.58
2023-01-13T10:06:19.367Z,77.78
2023-01-13T10:07:19.298Z,77.78
2023-01-13T10:08:18.996Z,77.98
2023-01-13T10:09:19.045Z,77.88
2023-01-13T10:10:18.986Z,77.98
2023-01-13T10:11:19.052Z,78.09
2023-01-13T10:12:19.091Z,77.88
2023-01-13T10:13:19.193Z,77.47
2023-01-13T10:14:18.857Z,77.37
2023-01-13T10:15:18.918Z,77.33
2023-01-13T10:16:19.003Z,76.51
2023-01-13T10:17:18.853Z,76.92
2023-01-13T10:18:18.967Z,76.92
2023-01-13T10:19:18.827Z,77.23
2023-01-13T10:20:19.193Z,76.51
2023-01-13T10:21:18.929Z,76.72
2023-01-13T10:22:18.856Z,77.13
2023-01-13T10:23:18.757Z,77.03
2023-01-13T10:24:18.850Z,77.44
2023-01-13T10:25:18.864Z,77.37
2023-01-13T10:26:18.877Z,77.68
2023-01-13T10:27:19.105Z,77.68
2023-01-13T10:28:19.445Z,77.68
2023-01-13T10:29:18.750Z,77.78
2023-01-13T10:30:18.929Z,77.54
2023-01-13T10:31:18.851Z,77.13
2023-01-13T10:32:18.646Z,77.03
2023-01-13T10:33:18.697Z,76.92
2023-01-13T10:34:19.007Z,76.92
2023-01-13T10:35:18.663Z,77.23
2023-01-13T10:36:18.710Z,77.33
2023-01-13T10:37:18.698Z,77.44
2023-01-13T10:38:18.827Z,76.78
2023-01-13T10:39:18.683Z,76.07
2023-01-13T10:40:18.709Z,75.96
2023-01-13T10:41:18.994Z,76.17
2023-01-13T10:42:18.639Z,75.90
2023-01-13T10:43:18.637Z,76.51
2023-01-13T10:44:18.623Z,76.41
2023-01-13T10:45:18.548Z,76.51
2023-01-13T10:46:18.642Z,76.17
2023-01-13T10:47:18.536Z,76.07
2023-01-13T10:48:18.968Z,75.56
2023-01-13T10:49:18.507Z,75.45
2023-01-13T10:50:18.615Z,75.42
2023-01-13T10:51:18.519Z,75.07
2023-01-13T10:52:18.479Z,74.46
2023-01-13T10:53:18.520Z,74.46
2023-01-13T10:54:18.499Z,74.80
2023-01-13T10:55:18.715Z,74.80
2023-01-13T10:56:18.444Z,75.35
2023-01-13T10:57:18.496Z,75.45
2023-01-13T10:58:18.559Z,75.45
2023-01-13T10:59:18.605Z,75.96
2023-01-13T11:00:18.606Z,75.86
2023-01-13T11:01:18.616Z,76.27
2023-01-13T11:02:26.952Z,76.17
2023-01-13T11:03:18.463Z,76.58
2023-01-13T11:04:18.335Z,76.07
2023-01-13T11:05:18.374Z,76.17
2023-01-13T11:06:18.511Z,76.17
2023-01-13T11:07:18.363Z,75.86
2023-01-13T11:08:18.376Z,75.76
2023-01-13T11:09:18.580Z,75.52
2023-01-13T11:10:18.364Z,75.31
2023-01-13T11:11:18.260Z,75.21
2023-01-13T11:12:18.589Z,75.01
2023-01-13T11:13:18.419Z,74.60
2023-01-13T11:14:18.242Z,75.24
2023-01-13T11:15:18.223Z,75.45
2023-01-13T11:16:18.575Z,75.76
2023-01-13T11:17:18.219Z,76.37
2023-01-13T11:18:18.380Z,76.37
2023-01-13T11:19:18.237Z,77.03
2023-01-13T11:20:18.213Z,78.67
2023-01-13T11:21:18.167Z,79.18
2023-01-13T11:22:18.231Z,80.10
2023-01-13T11:23:18.416Z,80.65
2023-01-13T11:24:18.237Z,80.65
2023-01-13T11:25:18.092Z,81.06
2023-01-13T11:26:18.136Z,81.20
2023-01-13T11:27:18.088Z,81.82
2023-01-13T11:28:18.079Z,82.13
2023-01-13T11:29:18.109Z,82.33
2023-01-13T11:30:18.529Z,82.54
2023-01-13T11:31:18.187Z,82.33
2023-01-13T11:32:18.092Z,82.03
2023-01-13T11:33:18.048Z,81.82
2023-01-13T11:34:18.140Z,81.20
2023-01-13T11:35:18.077Z,81.30
2023-01-13T11:36:20.403Z,81.71
2023-01-13T11:37:18.299Z,81.82
2023-01-13T11:38:18.053Z,82.03
2023-01-13T11:39:17.970Z,82.03
2023-01-13T11:40:17.957Z,82.13
2023-01-13T11:41:17.988Z,81.92
2023-01-13T11:42:18.021Z,82.03
2023-01-13T11:43:17.967Z,82.54
2023-01-13T11:44:18.293Z,82.54
2023-01-13T11:45:17.978Z,82.64
2023-01-13T11:46:17.969Z,82.33
2023-01-13T11:47:17.940Z,82.13
2023-01-13T11:48:18.052Z,81.82
2023-01-13T11:49:17.940Z,82.03
2023-01-13T11:50:17.912Z,81.62
2023-01-13T11:51:18.165Z,81.62
2023-01-13T11:52:17.915Z,82.03
2023-01-13T11:53:17.922Z,82.33
2023-01-13T11:54:17.983Z,83.05
2023-01-13T11:55:17.781Z,83.77
2023-01-13T11:56:17.888Z,83.61
2023-01-13T11:57:17.861Z,83.29
2023-01-13T11:58:18.054Z,83.40
2023-01-13T11:59:17.859Z,83.81
2023-01-13T12:00:17.859Z,83.09
2023-01-13T12:01:17.834Z,83.50
2023-01-13T12:02:17.860Z,83.40
2023-01-13T12:03:17.832Z,83.50
2023-01-13T12:04:17.741Z,83.61
2023-01-13T12:05:18.022Z,83.09
2023-01-13T12:06:17.821Z,83.61
2023-01-13T12:07:17.773Z,83.91
2023-01-13T12:08:17.676Z,83.50
2023-01-13T12:09:17.725Z,83.81
2023-01-13T12:10:17.673Z,83.81
2023-01-13T12:11:17.725Z,83.50
2023-01-13T12:12:18.067Z,83.61
2023-01-13T12:13:17.642Z,84.12
2023-01-13T12:14:17.630Z,83.91
2023-01-13T12:15:17.587Z,83.70
2023-01-13T12:16:17.632Z,83.77
2023-01-13T12:17:17.667Z,83.26
2023-01-13T12:18:17.831Z,82.60
2023-01-13T12:19:17.879Z,81.99
2023-01-13T12:20:17.569Z,82.29
2023-01-13T12:21:17.516Z,82.60
2023-01-13T12:22:17.550Z,83.05
2023-01-13T12:23:17.528Z,83.05
2023-01-13T12:24:17.573Z,83.36
2023-01-13T12:25:17.530Z,83.46
2023-01-13T12:26:17.792Z,83.98
2023-01-13T12:27:17.514Z,83.77
2023-01-13T12:28:17.544Z,83.26
2023-01-13T12:29:17.498Z,83.56
2023-01-13T12:30:17.698Z,83.67
2023-01-13T12:31:17.431Z,84.12
2023-01-13T12:32:17.487Z,83.91
2023-01-13T12:33:18.803Z,84.01
2023-01-13T12:34:17.368Z,84.22
2023-01-13T12:35:17.427Z,84.32
2023-01-13T12:36:17.423Z,84.22
2023-01-13T12:37:17.375Z,84.01
2023-01-13T12:38:17.441Z,84.12
2023-01-13T12:39:17.395Z,83.91
2023-01-13T12:40:17.692Z,83.70
2023-01-13T12:41:17.376Z,83.29
2023-01-13T12:42:17.352Z,83.19
2023-01-13T12:43:17.299Z,83.50
2023-01-13T12:44:17.358Z,83.40
2023-01-13T12:45:18.560Z,83.29
2023-01-13T12:46:17.365Z,83.40
2023-01-13T12:47:17.609Z,83.09
2023-01-13T12:48:17.473Z,82.84
2023-01-13T12:49:17.323Z,82.33
2023-01-13T12:50:17.277Z,82.75
2023-01-13T12:51:18.286Z,82.95
2023-01-13T12:52:17.263Z,82.68